createdAt,value
2019-03-17T00:01:56.983Z,3.50
2019-03-17T00:04:30.666Z,3.10
2019-03-17T00:06:48.863Z,3.40
2019-03-17T00:09:16.806Z,2.90
2019-03-17T00:11:44.791Z,3.67
2019-03-17T00:14:12.766Z,3.80
2019-03-17T00:16:40.685Z,3.63
2019-03-17T00:19:08.636Z,3.10
2019-03-17T00:21:36.596Z,3.30
2019-03-17T00:24:04.538Z,3.60
2019-03-17T00:26:32.513Z,3.23
2019-03-17T00:29:00.517Z,3.00
2019-03-17T00:31:28.503Z,3.53
2019-03-17T00:33:56.492Z,3.40
2019-03-17T00:36:24.428Z,4.47
2019-03-17T00:38:52.473Z,3.63
2019-03-17T00:41:20.484Z,3.60
2019-03-17T00:43:48.434Z,3.50
2019-03-17T00:46:16.430Z,3.47
2019-03-17T00:48:44.328Z,3.83
2019-03-17T00:51:12.284Z,3.20
2019-03-17T00:53:40.200Z,3.73
2019-03-17T00:56:08.162Z,3.25
2019-03-17T00:58:36.183Z,3.43
2019-03-17T01:01:04.109Z,3.30
2019-03-17T01:03:32.287Z,3.97
2019-03-17T01:06:00.236Z,3.23
2019-03-17T01:08:28.158Z,3.90
2019-03-17T01:10:56.069Z,3.87
2019-03-17T01:13:24.021Z,3.50
2019-03-17T01:15:51.948Z,3.10
2019-03-17T01:18:19.916Z,4.27
2019-03-17T01:20:47.818Z,3.17
2019-03-17T01:23:15.769Z,4.27
2019-03-17T01:25:43.691Z,3.30
2019-03-17T01:28:11.812Z,3.63
2019-03-17T01:30:39.790Z,3.40
2019-03-17T01:33:07.724Z,3.20
2019-03-17T01:35:35.668Z,3.27
2019-03-17T01:38:03.607Z,3.00
2019-03-17T01:40:31.591Z,2.97
2019-03-17T01:42:59.525Z,2.80
2019-03-17T01:45:27.508Z,3.00
2019-03-17T01:47:55.438Z,2.87
2019-03-17T01:50:23.458Z,3.50
2019-03-17T01:52:51.488Z,2.97
2019-03-17T01:55:19.415Z,3.47
2019-03-17T01:57:47.443Z,3.20
2019-03-17T02:00:15.360Z,3.07
2019-03-17T02:02:43.335Z,3.10
2019-03-17T02:05:21.537Z,3.10
2019-03-17T02:07:40.973Z,3.57
2019-03-17T02:10:08.932Z,2.87
2019-03-17T02:12:36.978Z,3.60
2019-03-17T02:15:05.259Z,3.33
2019-03-17T02:17:33.198Z,3.13
2019-03-17T02:20:01.125Z,3.30
2019-03-17T02:22:29.088Z,3.53
2019-03-17T02:24:57.105Z,3.10
2019-03-17T02:27:25.170Z,3.20
2019-03-17T02:29:53.103Z,3.50
2019-03-17T02:32:21.051Z,3.20
2019-03-17T02:34:49.016Z,3.73
2019-03-17T02:37:16.940Z,4.00
2019-03-17T02:39:44.858Z,2.83
2019-03-17T02:42:12.823Z,3.20
2019-03-17T02:44:40.788Z,3.37
2019-03-17T02:47:08.844Z,2.57
2019-03-17T02:49:36.767Z,3.00
2019-03-17T02:52:04.735Z,3.17
2019-03-17T02:54:32.702Z,3.47
2019-03-17T02:57:00.653Z,2.90
2019-03-17T02:59:28.729Z,2.47
2019-03-17T03:01:56.690Z,2.93
2019-03-17T03:04:24.634Z,2.87
2019-03-17T03:06:52.630Z,2.77
2019-03-17T03:09:20.608Z,3.00
2019-03-17T03:11:48.559Z,2.63
2019-03-17T03:14:16.519Z,2.60
2019-03-17T03:16:44.476Z,2.63
2019-03-17T03:19:12.422Z,2.50
2019-03-17T03:21:40.347Z,2.80
2019-03-17T03:24:08.339Z,2.60
2019-03-17T03:26:36.237Z,2.47
2019-03-17T03:29:04.210Z,2.50
2019-03-17T03:31:32.122Z,2.60
2019-03-17T03:34:00.122Z,2.60
2019-03-17T03:36:28.074Z,2.83
2019-03-17T03:38:55.953Z,2.47
2019-03-17T03:41:24.078Z,2.70
2019-03-17T03:43:52.081Z,3.23
2019-03-17T03:46:20.001Z,2.50
2019-03-17T03:48:47.924Z,2.30
2019-03-17T03:51:15.998Z,2.47
2019-03-17T03:53:43.980Z,2.60
2019-03-17T03:56:11.889Z,2.50
2019-03-17T03:58:39.783Z,3.27
2019-03-17T04:01:07.774Z,3.10
2019-03-17T04:03:35.682Z,2.47
2019-03-17T04:06:03.687Z,3.13
2019-03-17T04:08:31.581Z,2.77
2019-03-17T04:10:59.533Z,3.03
2019-03-17T04:13:27.436Z,2.57
2019-03-17T04:15:55.389Z,2.70
2019-03-17T04:18:23.373Z,2.50
2019-03-17T04:20:51.518Z,2.70
2019-03-17T04:23:19.402Z,2.83
2019-03-17T04:25:47.348Z,3.10
2019-03-17T04:28:15.382Z,3.30
2019-03-17T04:30:43.285Z,3.13
2019-03-17T04:33:11.266Z,3.03
2019-03-17T04:35:39.216Z,3.30
2019-03-17T04:38:07.187Z,2.57
2019-03-17T04:40:35.130Z,3.17
2019-03-17T04:43:03.063Z,3.17
2019-03-17T04:45:31.049Z,2.73
2019-03-17T04:47:59.007Z,2.97
2019-03-17T04:50:27.035Z,3.40
2019-03-17T04:52:55.064Z,2.67
2019-03-17T04:55:22.981Z,2.43
2019-03-17T04:57:50.914Z,3.20
2019-03-17T05:00:18.966Z,3.13
2019-03-17T05:02:46.998Z,2.60
2019-03-17T05:05:15.055Z,3.00
2019-03-17T05:07:42.997Z,2.90
2019-03-17T05:10:10.947Z,3.17
2019-03-17T05:12:38.922Z,3.07
2019-03-17T05:15:06.954Z,2.77
2019-03-17T05:17:34.927Z,2.77
2019-03-17T05:20:03.048Z,2.80
2019-03-17T05:22:30.988Z,2.30
2019-03-17T05:24:58.960Z,2.87
2019-03-17T05:27:26.923Z,2.60
2019-03-17T05:29:54.905Z,2.17
2019-03-17T05:32:22.831Z,2.27
2019-03-17T05:34:50.785Z,2.63
2019-03-17T05:37:18.862Z,2.30
2019-03-17T05:39:46.811Z,2.03
2019-03-17T05:42:14.759Z,2.33
2019-03-17T05:44:42.733Z,2.17
2019-03-17T05:47:10.681Z,2.47
2019-03-17T05:49:38.617Z,2.40
2019-03-17T05:52:08.375Z,2.30
2019-03-17T05:54:37.458Z,2.33
2019-03-17T05:57:05.428Z,2.33
2019-03-17T05:59:33.464Z,2.23
2019-03-17T06:02:03.209Z,2.30
2019-03-17T06:04:33.090Z,2.20
2019-03-17T06:07:02.161Z,2.47
2019-03-17T06:09:30.106Z,2.00
2019-03-17T06:11:58.118Z,2.40
2019-03-17T06:14:26.176Z,2.00
2019-03-17T06:16:54.091Z,2.30
2019-03-17T06:19:22.107Z,2.27
2019-03-17T06:21:50.093Z,2.30
2019-03-17T06:24:18.205Z,2.70
2019-03-17T06:26:47.147Z,2.70
2019-03-17T06:29:16.270Z,2.03
2019-03-17T06:31:46.005Z,2.17
2019-03-17T06:34:13.966Z,2.30
2019-03-17T06:36:41.892Z,2.53
2019-03-17T06:39:09.961Z,1.90
2019-03-17T06:41:37.906Z,2.17
2019-03-17T06:44:05.974Z,2.10
2019-03-17T06:46:33.927Z,2.10
2019-03-17T06:49:01.961Z,2.30
2019-03-17T06:51:29.997Z,2.23
2019-03-17T06:53:59.544Z,2.10
2019-03-17T06:56:29.264Z,2.63
2019-03-17T06:58:59.043Z,2.10
2019-03-17T07:01:27.006Z,2.27
2019-03-17T07:03:54.944Z,2.53
2019-03-17T07:06:23.034Z,2.00
2019-03-17T07:08:51.004Z,2.27
2019-03-17T07:11:18.940Z,2.57
2019-03-17T07:13:48.682Z,2.10
2019-03-17T07:16:17.781Z,2.27
2019-03-17T07:18:45.715Z,2.20
2019-03-17T07:21:13.698Z,1.70
2019-03-17T07:23:41.646Z,2.30
2019-03-17T07:26:09.660Z,2.57
2019-03-17T07:28:37.552Z,2.23
2019-03-17T07:31:05.518Z,2.60
2019-03-17T07:33:33.486Z,2.10
2019-03-17T07:36:01.357Z,2.67
2019-03-17T07:38:29.266Z,2.57
2019-03-17T07:40:57.221Z,2.40
2019-03-17T07:43:25.144Z,2.30
2019-03-17T07:45:53.138Z,2.43
2019-03-17T07:48:21.125Z,2.20
2019-03-17T07:50:49.087Z,2.30
2019-03-17T07:53:17.038Z,2.50
2019-03-17T07:55:46.669Z,2.30
2019-03-17T07:58:18.053Z,2.13
2019-03-17T08:00:46.584Z,2.20
2019-03-17T08:03:16.289Z,2.22
2019-03-17T08:05:44.332Z,2.00
2019-03-17T08:08:12.798Z,2.20
2019-03-17T08:10:41.267Z,2.00
2019-03-17T08:13:09.620Z,2.10
2019-03-17T08:15:39.045Z,1.70
2019-03-17T08:18:07.494Z,2.00
2019-03-17T08:20:35.748Z,1.90
2019-03-17T08:23:04.052Z,2.37
2019-03-17T08:25:32.381Z,1.87
2019-03-17T08:28:00.620Z,2.17
2019-03-17T08:30:28.981Z,2.40
2019-03-17T08:32:57.349Z,1.90
2019-03-17T08:35:25.578Z,2.00
2019-03-17T08:37:53.479Z,1.80
2019-03-17T08:40:21.430Z,2.40
2019-03-17T08:42:49.369Z,1.90
2019-03-17T08:45:17.330Z,1.90
2019-03-17T08:47:57.404Z,2.50
2019-03-17T08:50:14.945Z,1.80
2019-03-17T08:52:42.885Z,1.90
2019-03-17T08:55:10.857Z,2.00
2019-03-17T08:57:38.798Z,2.80
2019-03-17T09:00:07.518Z,1.97
2019-03-17T09:02:35.715Z,1.90
2019-03-17T09:05:03.911Z,2.43
2019-03-17T09:07:32.450Z,2.50
2019-03-17T09:10:00.588Z,1.87
2019-03-17T09:12:28.698Z,2.00
2019-03-17T09:14:56.691Z,1.83
2019-03-17T09:17:24.608Z,1.90
2019-03-17T09:19:54.690Z,2.13
2019-03-17T09:22:24.327Z,1.80
2019-03-17T09:24:52.398Z,1.80
2019-03-17T09:27:20.311Z,1.90
2019-03-17T09:29:48.705Z,2.53
2019-03-17T09:32:16.674Z,1.93
2019-03-17T09:34:44.589Z,2.30
2019-03-17T09:37:12.538Z,2.80
2019-03-17T09:39:40.524Z,2.00
2019-03-17T09:42:11.056Z,2.17
2019-03-17T09:44:38.292Z,2.13
2019-03-17T09:47:06.301Z,2.07
2019-03-17T09:49:34.337Z,2.33
2019-03-17T09:52:02.273Z,1.70
2019-03-17T09:54:32.021Z,1.70
2019-03-17T09:57:00.276Z,2.10
2019-03-17T09:59:28.352Z,2.30
2019-03-17T10:01:56.309Z,2.60
2019-03-17T10:04:24.226Z,2.40
2019-03-17T10:06:52.220Z,2.20
2019-03-17T10:09:20.146Z,2.93
2019-03-17T10:11:49.927Z,1.70
2019-03-17T10:14:17.974Z,2.10
2019-03-17T10:16:45.985Z,2.57
2019-03-17T10:19:14.104Z,1.80
2019-03-17T10:21:42.115Z,1.90
2019-03-17T10:24:10.163Z,2.13
2019-03-17T10:26:38.083Z,1.77
2019-03-17T10:29:06.082Z,1.80
2019-03-17T10:31:34.029Z,2.83
2019-03-17T10:34:04.646Z,2.23
2019-03-17T10:36:32.678Z,2.60
2019-03-17T10:39:11.874Z,2.10
2019-03-17T10:41:30.308Z,2.20
2019-03-17T10:43:58.441Z,1.90
2019-03-17T10:46:26.554Z,2.00
2019-03-17T10:48:54.552Z,1.93
2019-03-17T10:51:22.590Z,2.25
2019-03-17T10:53:50.593Z,2.20
2019-03-17T10:56:18.819Z,2.30
2019-03-17T10:58:47.034Z,1.83
2019-03-17T11:01:15.098Z,2.63
2019-03-17T11:03:43.105Z,1.80
2019-03-17T11:06:11.119Z,2.98
2019-03-17T11:08:39.190Z,2.50
2019-03-17T11:11:07.370Z,2.37
2019-03-17T11:13:35.458Z,2.20
2019-03-17T11:16:03.670Z,1.93
2019-03-17T11:18:31.725Z,1.83
2019-03-17T11:20:59.780Z,2.15
2019-03-17T11:23:27.931Z,2.50
2019-03-17T11:25:56.038Z,2.17
2019-03-17T11:28:27.237Z,1.90
2019-03-17T11:31:04.154Z,1.90
2019-03-17T11:33:32.297Z,2.23
2019-03-17T11:36:00.566Z,2.83
2019-03-17T11:38:28.603Z,2.00
2019-03-17T11:40:56.668Z,2.10
2019-03-17T11:43:24.851Z,1.70
2019-03-17T11:45:52.844Z,1.80
2019-03-17T11:48:20.835Z,2.17
2019-03-17T11:50:49.098Z,1.90
2019-03-17T11:53:17.082Z,2.00
2019-03-17T11:55:47.235Z,1.50
2019-03-17T11:58:15.264Z,2.17
2019-03-17T12:00:44.799Z,2.03
2019-03-17T12:03:12.915Z,1.90
2019-03-17T12:05:41.181Z,2.37
2019-03-17T12:08:09.354Z,2.10
2019-03-17T12:10:37.648Z,1.70
2019-03-17T12:13:05.653Z,1.97
2019-03-17T12:15:33.744Z,2.10
2019-03-17T12:18:01.740Z,2.00
2019-03-17T12:20:29.730Z,1.73
2019-03-17T12:22:57.840Z,1.67
2019-03-17T12:25:26.099Z,1.83
2019-03-17T12:27:54.121Z,1.87
2019-03-17T12:30:22.776Z,1.77
2019-03-17T12:32:50.995Z,1.97
2019-03-17T12:35:19.119Z,2.10
2019-03-17T12:37:48.140Z,2.23
2019-03-17T12:40:16.883Z,1.67
2019-03-17T12:42:44.861Z,1.70
2019-03-17T12:45:13.397Z,2.17
2019-03-17T12:47:41.737Z,2.00
2019-03-17T12:50:13.601Z,1.50
2019-03-17T12:52:41.562Z,1.17
2019-03-17T12:55:09.654Z,1.00
2019-03-17T12:57:42.526Z,1.10
2019-03-17T13:00:13.780Z,0.70
2019-03-17T13:02:42.035Z,1.40
2019-03-17T13:05:10.299Z,0.95
2019-03-17T13:07:53.526Z,1.23
2019-03-17T13:10:22.253Z,3.47
2019-03-17T13:12:50.448Z,1.77
2019-03-17T13:15:18.475Z,1.10
2019-03-17T13:17:49.894Z,1.30
2019-03-17T13:20:17.900Z,1.30
2019-03-17T13:22:45.981Z,1.63
2019-03-17T13:25:13.924Z,2.83
2019-03-17T13:27:41.909Z,3.63
2019-03-17T13:30:10.376Z,1.47
2019-03-17T13:32:38.322Z,1.30
2019-03-17T13:35:06.673Z,4.37
2019-03-17T13:37:34.749Z,4.73
2019-03-17T13:40:02.691Z,2.70
2019-03-17T13:42:30.713Z,1.60
2019-03-17T13:44:59.074Z,2.90
2019-03-17T13:47:27.001Z,3.37
2019-03-17T13:49:55.011Z,1.73
2019-03-17T13:52:23.003Z,2.33
2019-03-17T13:54:51.146Z,2.27
2019-03-17T13:57:19.067Z,1.60
2019-03-17T13:59:47.118Z,1.53
2019-03-17T14:02:15.244Z,0.97
2019-03-17T14:04:43.418Z,1.57
2019-03-17T14:07:11.363Z,0.90
2019-03-17T14:09:40.684Z,0.80
2019-03-17T14:12:08.782Z,0.90
2019-03-17T14:14:36.761Z,0.90
2019-03-17T14:17:04.885Z,1.87
2019-03-17T14:19:32.821Z,0.70
2019-03-17T14:22:02.061Z,1.00
2019-03-17T14:24:31.135Z,1.07
2019-03-17T14:26:59.130Z,0.80
2019-03-17T14:29:27.130Z,0.83
2019-03-17T14:31:55.218Z,1.20
2019-03-17T14:34:23.392Z,0.70
2019-03-17T14:36:52.121Z,1.27
2019-03-17T14:39:20.396Z,1.33
2019-03-17T14:41:48.399Z,1.40
2019-03-17T14:44:16.430Z,1.93
2019-03-17T14:46:44.477Z,6.07
2019-03-17T14:49:12.539Z,1.20
2019-03-17T14:51:40.477Z,1.00
2019-03-17T14:54:08.429Z,1.50
2019-03-17T14:56:37.718Z,1.00
2019-03-17T14:59:06.724Z,1.20
2019-03-17T15:01:39.561Z,1.20
2019-03-17T15:04:08.787Z,1.17
2019-03-17T15:06:38.021Z,0.83
2019-03-17T15:09:08.066Z,1.20
2019-03-17T15:11:36.027Z,1.00
2019-03-17T15:14:04.023Z,1.30
2019-03-17T15:16:32.085Z,1.27
2019-03-17T15:19:00.156Z,3.30
2019-03-17T15:21:28.148Z,0.90
2019-03-17T15:23:56.133Z,1.10
2019-03-17T15:26:24.182Z,1.10
2019-03-17T15:28:52.116Z,1.00
2019-03-17T15:31:20.067Z,1.00
2019-03-17T15:33:48.008Z,1.40
2019-03-17T15:36:15.963Z,1.40
2019-03-17T15:38:43.928Z,0.90
2019-03-17T15:41:18.639Z,0.90
2019-03-17T15:43:41.471Z,1.17
2019-03-17T15:46:09.451Z,0.90
2019-03-17T15:48:37.385Z,0.90
2019-03-17T15:51:05.340Z,1.13
2019-03-17T15:53:33.257Z,1.30
2019-03-17T15:56:01.278Z,1.70
2019-03-17T15:58:29.222Z,1.10
2019-03-17T16:00:57.198Z,1.00
2019-03-17T16:03:25.115Z,1.00
2019-03-17T16:05:53.072Z,1.40
2019-03-17T16:08:21.014Z,1.10
2019-03-17T16:10:49.438Z,1.13
2019-03-17T16:13:17.333Z,1.10
2019-03-17T16:15:45.301Z,1.10
2019-03-17T16:18:13.238Z,1.20
2019-03-17T16:20:41.242Z,1.27
2019-03-17T16:23:09.254Z,1.20
2019-03-17T16:25:37.439Z,1.07
2019-03-17T16:28:05.415Z,1.47
2019-03-17T16:30:33.358Z,1.50
2019-03-17T16:33:01.350Z,1.47
2019-03-17T16:35:29.275Z,2.70
2019-03-17T16:37:57.274Z,1.57
2019-03-17T16:40:25.224Z,1.60
2019-03-17T16:42:53.902Z,1.30
2019-03-17T16:45:22.122Z,1.40
2019-03-17T16:47:50.074Z,1.30
2019-03-17T16:50:18.090Z,1.20
2019-03-17T16:52:46.054Z,1.70
2019-03-17T16:55:14.155Z,1.33
2019-03-17T16:57:42.283Z,1.13
2019-03-17T17:00:11.312Z,1.10
2019-03-17T17:02:39.298Z,1.73
2019-03-17T17:05:07.546Z,1.20
2019-03-17T17:07:35.544Z,1.50
2019-03-17T17:10:03.492Z,1.10
2019-03-17T17:12:31.412Z,1.70
2019-03-17T17:14:59.386Z,1.40
2019-03-17T17:17:27.320Z,1.53
2019-03-17T17:19:55.316Z,1.30
2019-03-17T17:22:23.297Z,1.73
2019-03-17T17:24:51.337Z,1.30
2019-03-17T17:27:20.661Z,1.60
2019-03-17T17:29:48.749Z,1.22
2019-03-17T17:32:16.698Z,1.40
2019-03-17T17:34:44.851Z,1.00
2019-03-17T17:37:12.738Z,0.90
2019-03-17T17:39:40.707Z,0.70
2019-03-17T17:42:10.262Z,0.83
2019-03-17T17:44:38.390Z,0.80
2019-03-17T17:47:06.307Z,1.03
2019-03-17T17:49:34.261Z,0.83
2019-03-17T17:52:03.619Z,0.90
2019-03-17T17:54:31.679Z,0.80
2019-03-17T17:56:59.992Z,0.90
2019-03-17T17:59:27.929Z,0.70
2019-03-17T18:01:55.918Z,1.10
2019-03-17T18:04:23.842Z,0.90
2019-03-17T18:06:51.897Z,1.00
2019-03-17T18:09:19.889Z,1.17
2019-03-17T18:11:47.878Z,0.90
2019-03-17T18:14:16.071Z,1.17
2019-03-17T18:16:44.096Z,1.03
2019-03-17T18:19:12.130Z,0.90
2019-03-17T18:21:40.064Z,1.10
2019-03-17T18:24:08.098Z,1.20
2019-03-17T18:26:36.109Z,0.90
2019-03-17T18:29:04.071Z,1.10
2019-03-17T18:31:32.040Z,2.30
2019-03-17T18:34:00.019Z,2.23
2019-03-17T18:36:28.013Z,1.30
2019-03-17T18:38:56.059Z,1.37
2019-03-17T18:41:24.042Z,1.27
2019-03-17T18:43:51.990Z,1.37
2019-03-17T18:46:19.962Z,1.30
2019-03-17T18:48:47.906Z,1.87
2019-03-17T18:51:15.839Z,1.43
2019-03-17T18:53:43.804Z,1.50
2019-03-17T18:56:11.761Z,1.10
2019-03-17T18:58:39.685Z,2.37
2019-03-17T19:01:07.709Z,1.80
2019-03-17T19:03:35.675Z,1.60
2019-03-17T19:06:03.640Z,1.53
2019-03-17T19:08:31.655Z,1.77
2019-03-17T19:10:59.646Z,1.57
2019-03-17T19:13:27.604Z,1.70
2019-03-17T19:15:55.568Z,1.30
2019-03-17T19:18:23.567Z,1.30
2019-03-17T19:20:51.526Z,1.40
2019-03-17T19:23:19.483Z,1.50
2019-03-17T19:25:47.454Z,1.30
2019-03-17T19:28:15.486Z,1.57
2019-03-17T19:30:43.486Z,1.00
2019-03-17T19:33:11.426Z,1.60
2019-03-17T19:35:39.416Z,1.20
2019-03-17T19:38:07.452Z,1.17
2019-03-17T19:40:35.429Z,1.60
2019-03-17T19:43:03.443Z,2.20
2019-03-17T19:45:31.436Z,1.27
2019-03-17T19:47:59.435Z,1.20
2019-03-17T19:50:27.364Z,1.10
2019-03-17T19:52:55.313Z,1.10
2019-03-17T19:55:23.283Z,1.43
2019-03-17T19:57:51.220Z,1.27
2019-03-17T20:00:19.264Z,1.13
2019-03-17T20:02:47.944Z,1.20
2019-03-17T20:05:16.013Z,1.10
2019-03-17T20:07:43.966Z,1.20
2019-03-17T20:10:12.859Z,1.10
2019-03-17T20:12:40.837Z,1.20
2019-03-17T20:15:08.795Z,1.33
2019-03-17T20:17:36.763Z,1.37
2019-03-17T20:20:05.129Z,1.00
2019-03-17T20:22:33.054Z,1.42
2019-03-17T20:25:01.024Z,1.77
2019-03-17T20:27:30.843Z,1.77
2019-03-17T20:29:58.565Z,1.97
2019-03-17T20:32:26.514Z,1.70
2019-03-17T20:34:54.506Z,1.70
2019-03-17T20:37:22.438Z,1.83
2019-03-17T20:39:50.406Z,1.77
2019-03-17T20:42:18.346Z,2.60
2019-03-17T20:44:46.292Z,1.57
2019-03-17T20:47:15.252Z,1.30
2019-03-17T20:49:43.743Z,1.50
2019-03-17T20:52:12.689Z,1.30
2019-03-17T20:54:40.715Z,1.30
2019-03-17T20:57:08.932Z,1.13
2019-03-17T20:59:37.912Z,1.33
2019-03-17T21:02:06.212Z,1.37
2019-03-17T21:04:34.290Z,1.30
2019-03-17T21:07:03.358Z,1.20
2019-03-17T21:09:31.705Z,1.43
2019-03-17T21:12:00.543Z,1.33
2019-03-17T21:14:28.985Z,0.93
2019-03-17T21:16:57.174Z,1.40
2019-03-17T21:19:26.087Z,1.45
2019-03-17T21:21:54.140Z,1.53
2019-03-17T21:24:22.126Z,1.77
2019-03-17T21:26:50.095Z,1.10
2019-03-17T21:29:18.065Z,1.30
2019-03-17T21:31:46.044Z,1.20
2019-03-17T21:34:14.034Z,1.40
2019-03-17T21:36:43.443Z,2.20
2019-03-17T21:39:11.514Z,1.40
2019-03-17T21:41:39.485Z,1.57
2019-03-17T21:44:07.478Z,1.20
2019-03-17T21:46:35.749Z,1.73
2019-03-17T21:49:03.678Z,1.27
2019-03-17T21:51:31.625Z,1.60
2019-03-17T21:53:59.594Z,1.30
2019-03-17T21:56:27.581Z,1.27
2019-03-17T21:58:56.491Z,1.43
2019-03-17T22:01:24.439Z,1.93
2019-03-17T22:03:53.181Z,2.60
2019-03-17T22:06:21.146Z,1.60
2019-03-17T22:08:49.233Z,1.67
2019-03-17T22:11:17.210Z,1.60
2019-03-17T22:13:45.293Z,2.20
2019-03-17T22:16:13.250Z,1.43
2019-03-17T22:18:42.025Z,1.83
2019-03-17T22:21:09.955Z,1.27
2019-03-17T22:23:37.911Z,1.43
2019-03-17T22:26:05.829Z,1.53
2019-03-17T22:28:33.751Z,1.30
2019-03-17T22:31:01.717Z,1.53
2019-03-17T22:33:29.638Z,1.30
2019-03-17T22:35:57.570Z,1.30
2019-03-17T22:38:25.508Z,1.57
2019-03-17T22:40:53.498Z,2.37
2019-03-17T22:43:21.413Z,1.60
2019-03-17T22:45:49.508Z,1.50
2019-03-17T22:48:17.486Z,1.80
2019-03-17T22:50:45.501Z,1.50
2019-03-17T22:53:13.463Z,1.50
2019-03-17T22:55:41.428Z,2.03
2019-03-17T22:58:09.384Z,1.40
2019-03-17T23:00:44.281Z,1.80
2019-03-17T23:03:12.496Z,1.63
2019-03-17T23:05:40.480Z,1.73
2019-03-17T23:08:08.466Z,1.60
2019-03-17T23:10:36.967Z,1.70
2019-03-17T23:13:04.881Z,1.53
2019-03-17T23:15:35.544Z,1.90
2019-03-17T23:18:02.426Z,1.67
2019-03-17T23:20:30.437Z,1.77
2019-03-17T23:22:58.353Z,2.43
2019-03-17T23:25:26.373Z,1.80
2019-03-17T23:27:54.322Z,1.70
2019-03-17T23:30:22.294Z,1.90
2019-03-17T23:32:50.283Z,1.97
2019-03-17T23:35:18.252Z,1.77
2019-03-17T23:37:46.235Z,1.70
2019-03-17T23:40:14.239Z,1.70
2019-03-17T23:42:42.202Z,1.90
2019-03-17T23:45:10.562Z,1.83
2019-03-17T23:47:38.587Z,2.30
2019-03-17T23:50:06.558Z,2.10
2019-03-17T23:52:34.597Z,1.77
2019-03-17T23:55:02.629Z,2.50
2019-03-17T23:57:33.305Z,2.13
